Time;durP1;ratioP1;P1;durP2;ratioP2;P2;SDS_P1;SDS_P2;PMS_P1;PMS_P2;Temp;Humidity;BMP_temperature;BMP_pressure;BME280_temperature;BME280_humidity;BME280_pressure;Samples;Min_cycle;Max_cycle;Signal;HPM_P1;HPM_P2
2021/09/25 00:01:00;;;;;;;12.70;6.90;;;;;;;;;;4995599;28;20226;-76
2021/09/25 00:04:04;;;;;;;12.67;7.50;;;;;;;;;;4997146;28;20659;-76
2021/09/25 00:07:08;;;;;;;10.30;7.80;;;;;;;;;;4995474;28;20545;-76
2021/09/25 00:10:12;;;;;;;8.37;7.37;;;;;;;;;;4996815;28;20506;-76
2021/09/25 00:13:16;;;;;;;9.30;8.03;;;;;;;;;;4996455;28;20198;-76
2021/09/25 00:16:21;;;;;;;8.90;7.70;;;;;;;;;;4995369;28;20198;-76
2021/09/25 00:19:25;;;;;;;11.83;7.67;;;;;;;;;;4996379;28;20178;-76
2021/09/25 00:22:29;;;;;;;9.80;7.53;;;;;;;;;;4995987;28;20218;-76
2021/09/25 00:25:33;;;;;;;10.10;8.13;;;;;;;;;;4995170;28;20653;-76
2021/09/25 00:28:39;;;;;;;9.07;7.60;;;;;;;;;;4996213;28;20187;-76
2021/09/25 00:31:43;;;;;;;11.10;7.80;;;;;;;;;;4995793;28;20221;-76
2021/09/25 00:34:47;;;;;;;14.27;9.17;;;;;;;;;;4995323;28;20537;-76
2021/09/25 00:37:51;;;;;;;12.30;9.80;;;;;;;;;;4996052;28;20639;-76
2021/09/25 00:40:56;;;;;;;11.97;8.50;;;;;;;;;;4995425;28;20229;-76
2021/09/25 00:44:00;;;;;;;10.87;9.00;;;;;;;;;;4995117;28;20625;-76
2021/09/25 00:47:04;;;;;;;9.50;8.20;;;;;;;;;;4995685;28;20207;-76
2021/09/25 00:50:09;;;;;;;11.17;8.27;;;;;;;;;;4995801;28;20178;-76
2021/09/25 00:53:13;;;;;;;9.97;8.10;;;;;;;;;;4994718;28;20182;-76
2021/09/25 00:56:17;;;;;;;10.40;7.83;;;;;;;;;;4995901;28;20182;-76
2021/09/25 00:59:22;;;;;;;13.57;8.17;;;;;;;;;;4995930;28;20182;-76
2021/09/25 01:02:26;;;;;;;9.80;7.57;;;;;;;;;;5005824;28;20215;-76
2021/09/25 01:05:32;;;;;;;8.77;7.13;;;;;;;;;;4995524;28;20622;-76
2021/09/25 01:08:36;;;;;;;8.53;6.67;;;;;;;;;;4995364;28;20213;-76
2021/09/25 01:11:48;;;;;;;8.50;6.87;;;;;;;;;;4983996;28;20218;-76
2021/09/25 01:14:52;;;;;;;7.37;6.43;;;;;;;;;;4995528;28;20182;-76
2021/09/25 01:17:57;;;;;;;7.63;6.40;;;;;;;;;;4994515;28;20190;-76
2021/09/25 01:21:06;;;;;;;7.40;6.20;;;;;;;;;;4994903;28;20225;-76
2021/09/25 01:24:10;;;;;;;8.50;6.30;;;;;;;;;;4982951;28;20194;-76
2021/09/25 01:27:13;;;;;;;8.67;7.17;;;;;;;;;;4994862;28;20186;-75
2021/09/25 01:30:19;;;;;;;9.23;6.60;;;;;;;;;;4994737;28;20186;-76
2021/09/25 01:32:56;;;;;;;8.77;6.67;;;;;;;;;;5071371;28;20830;-74
2021/09/25 01:36:00;;;;;;;7.33;5.77;;;;;;;;;;5070102;28;20202;-74
2021/09/25 01:39:04;;;;;;;8.67;6.40;;;;;;;;;;5070088;28;20195;-74
2021/09/25 01:42:08;;;;;;;6.53;5.83;;;;;;;;;;5070595;28;20211;-74
2021/09/25 01:45:15;;;;;;;8.43;6.00;;;;;;;;;;5069942;28;20538;-74
2021/09/25 01:48:19;;;;;;;6.87;5.70;;;;;;;;;;5070738;28;20179;-74
2021/09/25 01:51:23;;;;;;;9.37;6.13;;;;;;;;;;5070149;28;20215;-74
2021/09/25 01:54:27;;;;;;;8.00;5.33;;;;;;;;;;5070298;28;20199;-74
2021/09/25 01:57:31;;;;;;;7.93;5.43;;;;;;;;;;5069727;28;20203;-74
2021/09/25 02:00:35;;;;;;;7.67;6.13;;;;;;;;;;5070392;28;20175;-74
2021/09/25 02:03:39;;;;;;;5.93;5.33;;;;;;;;;;5070160;28;20180;-74
2021/09/25 02:06:43;;;;;;;7.60;5.87;;;;;;;;;;5070078;28;20546;-74
2021/09/25 02:09:49;;;;;;;6.87;5.83;;;;;;;;;;5070335;28;20543;-74
2021/09/25 02:12:53;;;;;;;10.77;6.67;;;;;;;;;;5069417;28;20203;-74
2021/09/25 02:15:57;;;;;;;9.43;6.63;;;;;;;;;;5069434;28;20176;-74
2021/09/25 02:19:02;;;;;;;8.33;6.00;;;;;;;;;;5070372;28;20176;-74
2021/09/25 02:22:07;;;;;;;7.27;5.97;;;;;;;;;;5069032;28;20229;-74
2021/09/25 02:25:11;;;;;;;6.30;5.30;;;;;;;;;;5068842;28;20199;-74
2021/09/25 02:28:15;;;;;;;7.60;5.67;;;;;;;;;;5069587;28;20199;-74
2021/09/25 02:31:20;;;;;;;10.17;6.50;;;;;;;;;;5057221;28;20701;-74
2021/09/25 02:34:25;;;;;;;9.73;6.53;;;;;;;;;;5069737;28;20192;-73
2021/09/25 02:37:29;;;;;;;7.20;5.93;;;;;;;;;;5057302;28;20184;-74
2021/09/25 02:40:33;;;;;;;8.83;6.57;;;;;;;;;;5069548;28;20176;-74
2021/09/25 02:43:37;;;;;;;7.47;5.97;;;;;;;;;;5060136;28;20180;-73
2021/09/25 02:46:41;;;;;;;8.53;6.53;;;;;;;;;;5056265;28;20180;-74
2021/09/25 02:49:45;;;;;;;9.17;6.20;;;;;;;;;;5055243;28;20184;-74
2021/09/25 02:52:49;;;;;;;7.43;6.10;;;;;;;;;;5055731;28;20203;-74
2021/09/25 02:55:53;;;;;;;8.87;5.97;;;;;;;;;;5055950;28;20542;-74
2021/09/25 02:58:58;;;;;;;7.33;6.13;;;;;;;;;;5055103;28;20188;-74
2021/09/25 03:02:02;;;;;;;7.90;5.93;;;;;;;;;;5055740;28;20698;-74
2021/09/25 03:05:06;;;;;;;7.80;6.30;;;;;;;;;;5055709;28;20204;-74
2021/09/25 03:08:19;;;;;;;9.43;6.60;;;;;;;;;;5055314;28;20196;-74
2021/09/25 03:11:23;;;;;;;9.00;6.83;;;;;;;;;;4927677;29;20228;-73
2021/09/25 03:14:27;;;;;;;8.97;6.43;;;;;;;;;;4919486;29;20177;-74
2021/09/25 03:17:31;;;;;;;7.87;6.63;;;;;;;;;;4919342;29;20177;-73
2021/09/25 03:20:35;;;;;;;7.17;6.30;;;;;;;;;;4918479;29;20181;-73
2021/09/25 03:23:39;;;;;;;8.87;6.23;;;;;;;;;;4919507;29;20176;-73
2021/09/25 03:26:43;;;;;;;9.00;6.57;;;;;;;;;;4919451;29;20180;-73
2021/09/25 03:29:47;;;;;;;9.93;6.60;;;;;;;;;;4929640;29;20552;-74
2021/09/25 03:32:52;;;;;;;6.90;6.17;;;;;;;;;;4919074;29;20676;-73
2021/09/25 03:35:55;;;;;;;7.90;6.17;;;;;;;;;;4919608;29;20189;-73
2021/09/25 03:38:59;;;;;;;7.27;6.00;;;;;;;;;;4919258;29;20624;-73
2021/09/25 03:42:04;;;;;;;7.13;6.10;;;;;;;;;;4919111;29;20675;-73
2021/09/25 03:45:08;;;;;;;7.20;5.73;;;;;;;;;;4919196;29;20188;-73
2021/09/25 03:48:13;;;;;;;9.17;6.50;;;;;;;;;;4929140;29;20185;-73
2021/09/25 03:51:17;;;;;;;8.47;6.13;;;;;;;;;;4918842;29;20216;-73
2021/09/25 03:54:21;;;;;;;9.03;6.13;;;;;;;;;;4928263;29;20185;-73
2021/09/25 03:57:25;;;;;;;7.57;5.47;;;;;;;;;;4928763;29;20632;-73
2021/09/25 04:00:29;;;;;;;7.50;5.90;;;;;;;;;;4928963;29;20185;-73
2021/09/25 04:03:34;;;;;;;7.63;5.63;;;;;;;;;;4918773;29;20181;-73
2021/09/25 04:06:38;;;;;;;10.53;6.87;;;;;;;;;;4917867;29;20181;-73
2021/09/25 04:09:43;;;;;;;8.60;5.90;;;;;;;;;;4918368;29;20216;-73
2021/09/25 04:12:47;;;;;;;13.47;6.57;;;;;;;;;;4918327;29;20212;-73
2021/09/25 04:15:51;;;;;;;12.10;6.60;;;;;;;;;;4928726;29;20185;-73
2021/09/25 04:18:55;;;;;;;11.27;6.43;;;;;;;;;;4918259;29;20189;-73
2021/09/25 04:21:59;;;;;;;9.57;6.53;;;;;;;;;;4918334;29;20225;-73
2021/09/25 04:25:04;;;;;;;7.33;6.17;;;;;;;;;;4918379;29;20533;-73
2021/09/25 04:28:09;;;;;;;8.47;6.23;;;;;;;;;;4918331;29;20180;-73
2021/09/25 04:31:13;;;;;;;7.10;5.37;;;;;;;;;;4928054;29;20216;-73
2021/09/25 04:34:17;;;;;;;7.83;5.80;;;;;;;;;;4917440;29;20185;-73
2021/09/25 04:37:21;;;;;;;8.70;5.77;;;;;;;;;;4917989;29;20189;-73
2021/09/25 04:40:26;;;;;;;8.50;6.63;;;;;;;;;;4918038;29;20629;-73
2021/09/25 04:43:31;;;;;;;8.57;6.17;;;;;;;;;;4918084;29;20181;-73
2021/09/25 04:46:35;;;;;;;9.33;6.30;;;;;;;;;;4917841;29;20185;-73
2021/09/25 04:49:39;;;;;;;9.57;6.47;;;;;;;;;;4917978;29;20544;-73
2021/09/25 04:52:43;;;;;;;50.20;8.30;;;;;;;;;;4917557;29;20226;-73
2021/09/25 04:55:47;;;;;;;36.07;7.13;;;;;;;;;;4917881;29;20632;-73
2021/09/25 04:58:52;;;;;;;22.33;7.17;;;;;;;;;;4917832;29;20185;-73
2021/09/25 05:01:56;;;;;;;16.97;7.27;;;;;;;;;;4917433;29;20213;-73
2021/09/25 05:05:00;;;;;;;10.17;6.10;;;;;;;;;;4927621;29;20181;-74
2021/09/25 05:08:04;;;;;;;11.00;7.60;;;;;;;;;;4917470;29;20639;-73
2021/09/25 05:11:08;;;;;;;9.50;6.87;;;;;;;;;;4917634;29;20220;-73
2021/09/25 05:14:12;;;;;;;8.20;6.33;;;;;;;;;;4917372;29;20177;-73
2021/09/25 05:17:16;;;;;;;11.10;7.53;;;;;;;;;;4927704;29;20184;-73
2021/09/25 05:20:20;;;;;;;10.97;6.97;;;;;;;;;;4916669;29;20180;-73
2021/09/25 05:23:25;;;;;;;11.57;7.87;;;;;;;;;;4917541;29;20506;-74
2021/09/25 05:26:30;;;;;;;13.57;7.73;;;;;;;;;;4916728;29;20181;-73
2021/09/25 05:29:34;;;;;;;11.50;7.67;;;;;;;;;;4917478;29;20185;-74
2021/09/25 05:32:39;;;;;;;9.20;6.80;;;;;;;;;;4916926;29;20228;-73
2021/09/25 05:35:43;;;;;;;9.50;7.27;;;;;;;;;;4916632;29;20189;-73
2021/09/25 05:38:47;;;;;;;11.47;7.07;;;;;;;;;;4927511;29;20181;-74
2021/09/25 05:41:52;;;;;;;12.23;8.07;;;;;;;;;;4917305;29;20216;-73
2021/09/25 05:44:56;;;;;;;13.17;9.30;;;;;;;;;;4917044;29;20197;-73
2021/09/25 05:48:00;;;;;;;17.27;12.80;;;;;;;;;;4917364;29;20188;-73
2021/09/25 05:51:04;;;;;;;11.90;8.90;;;;;;;;;;4916388;29;20216;-73
2021/09/25 05:54:09;;;;;;;17.60;9.60;;;;;;;;;;4926771;29;20216;-73
2021/09/25 05:57:13;;;;;;;11.90;8.63;;;;;;;;;;4917222;29;20181;-74
2021/09/25 06:00:18;;;;;;;18.80;8.27;;;;;;;;;;4916890;29;20208;-73
2021/09/25 06:03:22;;;;;;;18.50;9.17;;;;;;;;;;4916858;29;20201;-73
2021/09/25 06:06:28;;;;;;;15.87;9.80;;;;;;;;;;4916897;29;20185;-73
2021/09/25 06:09:32;;;;;;;16.87;8.80;;;;;;;;;;4916076;29;20209;-73
2021/09/25 06:12:36;;;;;;;13.87;9.63;;;;;;;;;;4916625;29;20225;-73
2021/09/25 06:15:40;;;;;;;15.73;8.83;;;;;;;;;;4926863;29;20527;-73
2021/09/25 06:18:44;;;;;;;11.77;8.90;;;;;;;;;;4918973;29;20181;-74
2021/09/25 06:21:48;;;;;;;17.63;9.17;;;;;;;;;;4920211;29;20225;-73
2021/09/25 06:24:55;;;;;;;19.20;9.40;;;;;;;;;;4930365;29;20660;-74
2021/09/25 06:27:59;;;;;;;14.33;9.37;;;;;;;;;;4920786;29;20509;-74
2021/09/25 06:31:03;;;;;;;11.53;9.20;;;;;;;;;;4920038;29;20220;-74
2021/09/25 06:34:07;;;;;;;15.97;9.87;;;;;;;;;;4920068;29;20216;-74
2021/09/25 06:37:11;;;;;;;15.03;9.30;;;;;;;;;;4920166;29;20185;-74
2021/09/25 06:40:15;;;;;;;11.53;9.47;;;;;;;;;;4920013;29;20180;-74
2021/09/25 06:43:20;;;;;;;12.13;8.97;;;;;;;;;;4920207;29;20189;-74
2021/09/25 06:46:23;;;;;;;12.83;8.80;;;;;;;;;;4920118;29;20185;-73
2021/09/25 06:49:27;;;;;;;12.77;8.47;;;;;;;;;;4929988;29;20185;-74
2021/09/25 06:52:31;;;;;;;14.33;8.17;;;;;;;;;;4919740;29;20568;-74
2021/09/25 06:55:35;;;;;;;16.77;9.37;;;;;;;;;;4920044;29;20189;-74
2021/09/25 06:58:40;;;;;;;12.53;7.60;;;;;;;;;;4919690;29;20640;-74
2021/09/25 07:01:44;;;;;;;14.93;7.50;;;;;;;;;;4919566;29;20224;-74
2021/09/25 07:04:48;;;;;;;9.00;7.37;;;;;;;;;;4919609;29;20185;-74
2021/09/25 07:07:53;;;;;;;9.77;7.50;;;;;;;;;;4919506;29;20540;-74
2021/09/25 07:10:57;;;;;;;11.83;7.47;;;;;;;;;;4919972;29;20224;-74
2021/09/25 07:14:01;;;;;;;8.23;6.93;;;;;;;;;;4919446;29;20217;-73
2021/09/25 07:17:05;;;;;;;19.40;6.47;;;;;;;;;;4919636;29;20181;-74
2021/09/25 07:20:10;;;;;;;14.63;7.63;;;;;;;;;;4919346;29;20185;-74
2021/09/25 07:23:14;;;;;;;11.73;8.73;;;;;;;;;;4919256;29;20185;-73
2021/09/25 07:26:18;;;;;;;11.00;8.10;;;;;;;;;;4919238;29;20529;-74
2021/09/25 07:29:22;;;;;;;11.97;7.80;;;;;;;;;;4919447;29;20193;-73
2021/09/25 07:32:26;;;;;;;9.27;7.37;;;;;;;;;;4929342;29;20220;-73
2021/09/25 07:35:34;;;;;;;10.83;6.77;;;;;;;;;;4919046;29;20181;-73
2021/09/25 07:38:38;;;;;;;12.53;7.10;;;;;;;;;;4919147;29;20189;-73
2021/09/25 07:41:42;;;;;;;9.30;6.67;;;;;;;;;;4928962;29;20220;-74
2021/09/25 07:44:47;;;;;;;8.57;7.13;;;;;;;;;;4918857;29;20192;-74
2021/09/25 07:47:52;;;;;;;11.27;9.40;;;;;;;;;;4919153;29;20521;-74
2021/09/25 07:50:56;;;;;;;31.27;27.87;;;;;;;;;;4918300;29;20224;-73
2021/09/25 07:54:00;;;;;;;123.43;105.00;;;;;;;;;;4928578;29;20221;-74
2021/09/25 07:57:04;;;;;;;75.97;53.67;;;;;;;;;;4918860;29;20683;-73
2021/09/25 08:00:11;;;;;;;19.63;14.67;;;;;;;;;;4918546;29;20208;-74
2021/09/25 08:03:16;;;;;;;12.80;10.60;;;;;;;;;;4918797;29;20177;-73
2021/09/25 08:06:20;;;;;;;13.20;9.70;;;;;;;;;;4928750;29;20184;-73
2021/09/25 08:09:25;;;;;;;13.93;9.07;;;;;;;;;;4918446;29;20208;-74
2021/09/25 08:12:29;;;;;;;9.53;8.40;;;;;;;;;;4918259;29;20220;-74
2021/09/25 08:15:32;;;;;;;10.17;8.30;;;;;;;;;;4918294;29;20188;-73
2021/09/25 08:18:36;;;;;;;27.00;8.37;;;;;;;;;;4918527;29;20510;-73
2021/09/25 08:21:41;;;;;;;13.53;8.30;;;;;;;;;;4928378;29;20700;-73
2021/09/25 08:24:45;;;;;;;11.77;8.17;;;;;;;;;;4918659;29;20185;-73
2021/09/25 08:27:49;;;;;;;10.87;8.67;;;;;;;;;;4928470;29;20192;-74
2021/09/25 08:30:53;;;;;;;10.13;9.07;;;;;;;;;;4917367;29;20224;-74
2021/09/25 08:33:57;;;;;;;9.87;8.83;;;;;;;;;;4918025;29;20216;-74
2021/09/25 08:37:03;;;;;;;13.70;9.23;;;;;;;;;;4928236;29;20193;-73
2021/09/25 08:40:11;;;;;;;13.03;9.13;;;;;;;;;;4928306;29;20177;-73
2021/09/25 08:43:15;;;;;;;14.20;9.93;;;;;;;;;;4917779;29;20181;-74
2021/09/25 08:46:19;;;;;;;10.67;8.60;;;;;;;;;;4917852;29;20180;-73
2021/09/25 08:49:23;;;;;;;13.60;8.50;;;;;;;;;;4918098;29;20180;-73
2021/09/25 08:52:29;;;;;;;12.03;8.80;;;;;;;;;;4927798;29;20224;-74
2021/09/25 08:55:33;;;;;;;16.57;10.10;;;;;;;;;;4917398;29;20181;-74
2021/09/25 08:58:37;;;;;;;15.00;9.50;;;;;;;;;;4917893;29;20192;-74
2021/09/25 09:01:43;;;;;;;13.77;9.27;;;;;;;;;;4927615;29;20224;-73
2021/09/25 09:04:55;;;;;;;10.03;8.73;;;;;;;;;;4917784;29;20177;-74
2021/09/25 09:08:02;;;;;;;10.20;9.07;;;;;;;;;;4917474;29;20208;-74
2021/09/25 09:11:07;;;;;;;9.70;8.67;;;;;;;;;;4967208;23;20704;-75
2021/09/25 09:14:16;;;;;;;15.13;9.17;;;;;;;;;;5013952;28;20671;-75
2021/09/25 09:17:26;;;;;;;17.33;9.53;;;;;;;;;;5013784;28;20185;-75
2021/09/25 09:20:31;;;;;;;43.23;9.97;;;;;;;;;;5002118;28;20182;-75
2021/09/25 09:23:38;;;;;;;13.30;8.00;;;;;;;;;;5001879;28;20192;-75
2021/09/25 09:26:42;;;;;;;11.37;8.33;;;;;;;;;;5013793;28;20192;-75
2021/09/25 09:29:46;;;;;;;13.07;9.00;;;;;;;;;;5002205;28;20632;-76
2021/09/25 09:32:50;;;;;;;10.23;8.68;;;;;;;;;;5014654;28;20638;-76
2021/09/25 09:36:10;;;;;;;12.10;8.82;;;;;;;;;;5013830;28;20185;-76
2021/09/25 09:39:19;;;;;;;9.20;6.82;;;;;;;;;;5013925;28;20194;-76
2021/09/25 09:42:23;;;;;;;10.32;7.32;;;;;;;;;;5001298;28;20219;-77
2021/09/25 09:45:31;;;;;;;16.08;9.48;;;;;;;;;;5001446;28;20181;-76
2021/09/25 09:48:38;;;;;;;11.27;9.20;;;;;;;;;;4990583;28;20520;-77
2021/09/25 09:51:44;;;;;;;15.32;13.75;;;;;;;;;;4979215;28;20228;-77
2021/09/25 09:54:53;;;;;;;11.80;9.13;;;;;;;;;;5006461;28;20224;-77
2021/09/25 09:58:07;;;;;;;10.73;7.20;;;;;;;;;;5018246;28;20208;-77
2021/09/25 10:01:11;;;;;;;9.75;7.43;;;;;;;;;;5018003;28;20222;-77
2021/09/25 10:04:16;;;;;;;6.82;6.15;;;;;;;;;;5017419;28;20179;-77
2021/09/25 10:07:20;;;;;;;24.13;6.35;;;;;;;;;;5005106;28;20184;-77
2021/09/25 10:10:26;;;;;;;47.45;6.95;;;;;;;;;;5017184;28;20635;-77
2021/09/25 10:13:32;;;;;;;14.18;4.88;;;;;;;;;;5017402;28;20215;-77
2021/09/25 10:16:40;;;;;;;5.95;4.05;;;;;;;;;;5017387;28;20195;-77
2021/09/25 10:19:45;;;;;;;11.93;4.22;;;;;;;;;;4994448;28;20184;-76
2021/09/25 10:22:50;;;;;;;6.53;3.70;;;;;;;;;;4993739;28;20200;-77
2021/09/25 10:25:57;;;;;;;5.40;3.67;;;;;;;;;;5016754;28;20197;-76
2021/09/25 10:29:05;;;;;;;10.27;3.67;;;;;;;;;;5016983;28;20181;-77
2021/09/25 10:32:35;;;;;;;27.48;4.07;;;;;;;;;;5016376;28;20216;-76
2021/09/25 10:35:39;;;;;;;5.88;3.22;;;;;;;;;;5004854;28;20506;-75
2021/09/25 10:38:43;;;;;;;50.60;5.85;;;;;;;;;;5016867;28;20185;-75
2021/09/25 10:41:48;;;;;;;5.47;3.40;;;;;;;;;;5004529;28;20699;-76
2021/09/25 10:44:52;;;;;;;3.20;2.90;;;;;;;;;;5004893;28;20655;-77
2021/09/25 10:48:31;;;;;;;3.95;2.75;;;;;;;;;;5005473;28;20521;-77
2021/09/25 10:51:41;;;;;;;6.78;3.55;;;;;;;;;;4972710;28;20238;-77
2021/09/25 10:54:45;;;;;;;10.45;3.38;;;;;;;;;;4989802;28;20644;-77
2021/09/25 10:58:23;;;;;;;167.57;10.85;;;;;;;;;;5001330;28;20189;-77
2021/09/25 11:01:38;;;;;;;4.97;2.90;;;;;;;;;;5001015;28;20586;-78
2021/09/25 11:04:42;;;;;;;4.50;2.67;;;;;;;;;;4989860;28;20195;-77
2021/09/25 11:07:58;;;;;;;8.02;3.00;;;;;;;;;;5013357;28;20209;-77
2021/09/25 11:11:09;;;;;;;4.55;3.35;;;;;;;;;;5001615;28;20225;-77
2021/09/25 11:14:29;;;;;;;10.23;3.45;;;;;;;;;;4990259;28;20215;-77
2021/09/25 11:17:34;;;;;;;4.35;3.25;;;;;;;;;;4978958;28;20585;-76
2021/09/25 11:20:38;;;;;;;3.75;2.92;;;;;;;;;;5001119;28;20180;-77
2021/09/25 11:23:45;;;;;;;7.38;3.80;;;;;;;;;;5012975;28;20182;-77
2021/09/25 11:26:51;;;;;;;5.38;3.05;;;;;;;;;;5013256;28;20184;-77
2021/09/25 11:30:05;;;;;;;4.25;3.00;;;;;;;;;;4991147;28;20752;-78
2021/09/25 11:33:12;;;;;;;10.48;3.28;;;;;;;;;;5015133;28;20217;-78
2021/09/25 11:36:16;;;;;;;3.92;2.85;;;;;;;;;;5013130;28;20195;-78
2021/09/25 11:39:43;;;;;;;6.78;3.08;;;;;;;;;;4988550;28;20184;-78
2021/09/25 11:42:48;;;;;;;3.85;2.80;;;;;;;;;;5013308;28;20185;-77
2021/09/25 11:45:54;;;;;;;5.28;3.25;;;;;;;;;;5000652;28;20187;-77
2021/09/25 11:48:58;;;;;;;6.18;3.65;;;;;;;;;;5012618;28;20186;-77
2021/09/25 11:52:03;;;;;;;4.60;2.85;;;;;;;;;;4989064;28;20223;-78
2021/09/25 11:55:10;;;;;;;6.00;3.35;;;;;;;;;;5012343;28;20280;-78
2021/09/25 11:58:17;;;;;;;2.78;2.58;;;;;;;;;;5000686;28;20209;-77
2021/09/25 12:01:22;;;;;;;8.25;3.15;;;;;;;;;;4991452;28;20225;-78
2021/09/25 12:04:42;;;;;;;10.35;2.90;;;;;;;;;;4989598;28;20193;-78
2021/09/25 12:07:46;;;;;;;12.45;2.88;;;;;;;;;;4989056;28;20656;-77
2021/09/25 12:10:54;;;;;;;4.63;2.65;;;;;;;;;;4987760;28;20239;-78
2021/09/25 12:13:58;;;;;;;3.85;3.00;;;;;;;;;;4999598;28;20215;-78
2021/09/25 12:17:02;;;;;;;3.10;2.80;;;;;;;;;;4988562;28;20429;-77
2021/09/25 12:20:15;;;;;;;4.65;2.88;;;;;;;;;;4999364;28;20187;-77
2021/09/25 12:23:30;;;;;;;2.65;2.45;;;;;;;;;;4992327;28;20182;-77
2021/09/25 12:26:42;;;;;;;3.50;2.65;;;;;;;;;;4991861;28;20666;-77
2021/09/25 12:29:46;;;;;;;2.60;2.40;;;;;;;;;;5015623;28;20688;-77
2021/09/25 12:33:03;;;;;;;15.48;4.07;;;;;;;;;;5015493;28;20178;-77
2021/09/25 12:36:10;;;;;;;4.75;2.50;;;;;;;;;;5002598;28;20572;-77
2021/09/25 12:39:22;;;;;;;2.65;2.38;;;;;;;;;;5003151;28;20529;-77
2021/09/25 12:42:26;;;;;;;2.80;2.60;;;;;;;;;;5003053;28;20220;-77
2021/09/25 12:45:31;;;;;;;11.10;3.50;;;;;;;;;;5003390;28;20522;-77
2021/09/25 12:48:35;;;;;;;5.18;2.60;;;;;;;;;;5015304;28;20184;-77
2021/09/25 12:51:45;;;;;;;2.85;2.50;;;;;;;;;;5003555;28;20212;-77
2021/09/25 12:54:51;;;;;;;3.70;2.60;;;;;;;;;;4981346;28;20210;-77
2021/09/25 12:58:00;;;;;;;3.40;2.47;;;;;;;;;;5015483;28;20190;-77
2021/09/25 13:01:04;;;;;;;2.78;2.42;;;;;;;;;;5003086;28;20221;-77
2021/09/25 13:04:18;;;;;;;11.75;3.67;;;;;;;;;;5015168;28;20523;-77
2021/09/25 13:07:38;;;;;;;4.00;2.83;;;;;;;;;;5015512;28;20198;-77
2021/09/25 13:10:49;;;;;;;2.85;2.60;;;;;;;;;;5003582;28;20229;-77
2021/09/25 13:14:07;;;;;;;3.80;2.55;;;;;;;;;;5015793;28;20186;-77
2021/09/25 13:17:11;;;;;;;2.63;2.30;;;;;;;;;;5003652;28;20629;-77
2021/09/25 13:20:22;;;;;;;4.97;2.60;;;;;;;;;;5016042;28;20510;-77
2021/09/25 13:23:28;;;;;;;79.45;6.93;;;;;;;;;;5003125;28;20202;-77
2021/09/25 13:26:34;;;;;;;16.05;2.80;;;;;;;;;;5003395;28;20182;-77
2021/09/25 13:29:39;;;;;;;3.03;2.10;;;;;;;;;;4992334;28;20181;-78
2021/09/25 13:32:44;;;;;;;9.13;2.75;;;;;;;;;;5014854;28;20217;-77
2021/09/25 13:35:48;;;;;;;5.43;3.03;;;;;;;;;;5014663;28;20206;-77
2021/09/25 13:38:52;;;;;;;4.75;2.70;;;;;;;;;;5015461;28;20180;-77
2021/09/25 13:41:57;;;;;;;6.22;2.58;;;;;;;;;;5014882;28;20218;-77
2021/09/25 13:45:01;;;;;;;2.60;2.40;;;;;;;;;;4983273;28;20170;-77
2021/09/25 13:48:05;;;;;;;2.70;2.33;;;;;;;;;;4996339;28;20190;-80
2021/09/25 13:51:10;;;;;;;13.90;3.00;;;;;;;;;;4961213;28;20217;-80
2021/09/25 13:54:15;;;;;;;3.42;2.70;;;;;;;;;;4983605;28;20200;-79
2021/09/25 13:57:21;;;;;;;4.72;2.50;;;;;;;;;;4992648;28;20197;-80
2021/09/25 14:00:25;;;;;;;27.67;7.20;;;;;;;;;;5014435;28;20184;-79
2021/09/25 14:03:29;;;;;;;4.45;2.40;;;;;;;;;;5004239;28;20185;-79
2021/09/25 14:06:33;;;;;;;6.10;3.20;;;;;;;;;;5000834;28;20639;-76
2021/09/25 14:09:37;;;;;;;11.52;4.22;;;;;;;;;;4989841;28;20181;-76
2021/09/25 14:12:42;;;;;;;3.15;2.60;;;;;;;;;;5013081;28;20567;-75
2021/09/25 14:15:46;;;;;;;2.45;2.25;;;;;;;;;;5011875;28;20207;-75
2021/09/25 14:18:50;;;;;;;4.82;2.63;;;;;;;;;;5013112;28;20688;-76
2021/09/25 14:21:54;;;;;;;4.18;2.63;;;;;;;;;;5012343;28;20224;-76
2021/09/25 14:24:58;;;;;;;3.08;2.60;;;;;;;;;;5013410;28;20178;-76
2021/09/25 14:28:02;;;;;;;3.38;2.10;;;;;;;;;;5013365;28;20185;-75
2021/09/25 14:31:07;;;;;;;4.50;2.33;;;;;;;;;;5000429;28;20225;-76
2021/09/25 14:34:11;;;;;;;4.60;2.80;;;;;;;;;;5013192;28;20185;-76
2021/09/25 14:37:16;;;;;;;5.45;3.70;;;;;;;;;;5012691;28;20544;-76
2021/09/25 14:40:20;;;;;;;3.40;2.28;;;;;;;;;;4992079;28;20208;-77
2021/09/25 14:43:25;;;;;;;3.05;2.72;;;;;;;;;;5003381;28;20196;-76
2021/09/25 14:46:29;;;;;;;3.83;2.53;;;;;;;;;;5004264;28;20188;-76
2021/09/25 14:49:34;;;;;;;2.60;2.40;;;;;;;;;;5004691;28;20188;-76
2021/09/25 14:52:38;;;;;;;5.82;2.17;;;;;;;;;;5016184;28;20218;-76
2021/09/25 14:55:43;;;;;;;4.97;2.70;;;;;;;;;;5016355;28;20223;-77
2021/09/25 14:58:47;;;;;;;2.55;2.35;;;;;;;;;;5004146;28;20686;-76
2021/09/25 15:01:51;;;;;;;3.00;2.50;;;;;;;;;;5016138;28;20224;-77
2021/09/25 15:04:55;;;;;;;7.82;2.92;;;;;;;;;;4993183;28;20180;-77
2021/09/25 15:07:59;;;;;;;5.53;2.70;;;;;;;;;;5004108;28;20179;-77
2021/09/25 15:11:05;;;;;;;3.63;2.17;;;;;;;;;;5030904;23;20231;-74
2021/09/25 15:14:10;;;;;;;4.68;2.60;;;;;;;;;;5016532;28;20644;-73
2021/09/25 15:17:14;;;;;;;5.18;3.10;;;;;;;;;;5016358;28;20170;-73
2021/09/25 15:20:18;;;;;;;2.88;2.50;;;;;;;;;;5016525;28;20190;-74
2021/09/25 15:23:23;;;;;;;7.78;2.95;;;;;;;;;;5007024;28;20189;-74
2021/09/25 15:26:27;;;;;;;6.47;2.95;;;;;;;;;;4996472;28;20179;-74
2021/09/25 15:29:31;;;;;;;7.47;2.75;;;;;;;;;;5006563;28;20201;-74
2021/09/25 15:32:35;;;;;;;5.65;2.55;;;;;;;;;;4996063;28;20227;-74
2021/09/25 15:35:39;;;;;;;4.97;2.20;;;;;;;;;;4995147;28;20209;-74
2021/09/25 15:38:43;;;;;;;10.90;2.67;;;;;;;;;;4996193;28;20187;-74
2021/09/25 15:41:50;;;;;;;11.00;3.17;;;;;;;;;;5006471;28;20684;-74
2021/09/25 15:44:54;;;;;;;6.47;2.73;;;;;;;;;;4996117;28;20175;-74
2021/09/25 15:47:59;;;;;;;9.30;2.90;;;;;;;;;;4996085;28;20669;-74
2021/09/25 15:51:03;;;;;;;9.67;3.17;;;;;;;;;;4995623;28;20228;-74
2021/09/25 15:54:08;;;;;;;4.03;2.67;;;;;;;;;;4995907;28;20178;-74
2021/09/25 15:57:12;;;;;;;9.10;3.23;;;;;;;;;;5006307;28;20185;-74
2021/09/25 16:00:17;;;;;;;11.43;3.20;;;;;;;;;;4995786;28;20187;-74
2021/09/25 16:03:21;;;;;;;4.90;2.97;;;;;;;;;;4995511;28;20186;-74
2021/09/25 16:06:27;;;;;;;5.53;2.80;;;;;;;;;;4994811;28;20185;-73
2021/09/25 16:09:31;;;;;;;3.30;2.67;;;;;;;;;;4994829;28;20184;-74
2021/09/25 16:12:35;;;;;;;3.77;3.00;;;;;;;;;;4995332;28;20715;-74
2021/09/25 16:15:40;;;;;;;4.50;2.80;;;;;;;;;;4994640;28;20211;-74
2021/09/25 16:18:44;;;;;;;7.37;3.00;;;;;;;;;;5006202;28;20191;-74
2021/09/25 16:21:49;;;;;;;6.70;3.20;;;;;;;;;;4995173;28;20226;-74
2021/09/25 16:24:53;;;;;;;7.93;2.80;;;;;;;;;;4995076;28;20182;-74
2021/09/25 16:27:56;;;;;;;10.87;3.30;;;;;;;;;;4994990;28;20178;-74
2021/09/25 16:31:01;;;;;;;6.73;2.90;;;;;;;;;;4995315;28;20206;-73
2021/09/25 16:34:05;;;;;;;4.17;3.03;;;;;;;;;;4995165;28;20518;-74
2021/09/25 16:37:10;;;;;;;7.63;2.97;;;;;;;;;;4994654;28;20202;-74
2021/09/25 16:40:14;;;;;;;6.73;2.90;;;;;;;;;;4995051;28;20182;-73
2021/09/25 16:43:18;;;;;;;9.20;4.00;;;;;;;;;;4994941;28;20198;-74
2021/09/25 16:46:23;;;;;;;7.03;3.43;;;;;;;;;;4993945;28;20532;-73
2021/09/25 16:49:27;;;;;;;10.67;3.70;;;;;;;;;;4994094;28;20186;-74
2021/09/25 16:52:31;;;;;;;9.67;3.53;;;;;;;;;;4994512;28;20222;-73
2021/09/25 16:55:38;;;;;;;4.53;3.60;;;;;;;;;;4994438;28;20206;-74
2021/09/25 16:58:42;;;;;;;4.33;3.93;;;;;;;;;;4994432;28;20205;-74
2021/09/25 17:01:46;;;;;;;8.00;3.80;;;;;;;;;;4994188;28;20222;-74
2021/09/25 17:04:50;;;;;;;47.47;6.57;;;;;;;;;;4994950;28;20174;-74
2021/09/25 17:07:55;;;;;;;14.50;3.83;;;;;;;;;;4994421;28;20178;-74
2021/09/25 17:10:58;;;;;;;3.63;3.00;;;;;;;;;;4994340;28;20217;-73
2021/09/25 17:14:03;;;;;;;4.30;3.50;;;;;;;;;;5004980;28;20533;-73
2021/09/25 17:17:07;;;;;;;5.20;3.20;;;;;;;;;;5004463;28;20217;-73
2021/09/25 17:20:13;;;;;;;4.80;3.50;;;;;;;;;;4994137;28;20209;-74
2021/09/25 17:23:18;;;;;;;4.43;3.50;;;;;;;;;;4994106;28;20183;-74
2021/09/25 17:26:22;;;;;;;4.93;3.40;;;;;;;;;;4994393;28;20175;-73
2021/09/25 17:29:26;;;;;;;5.07;3.77;;;;;;;;;;5004843;28;20183;-73
2021/09/25 17:32:31;;;;;;;3.73;3.17;;;;;;;;;;4993980;28;20214;-73
2021/09/25 17:35:36;;;;;;;3.77;3.37;;;;;;;;;;4994223;28;20206;-74
2021/09/25 17:38:41;;;;;;;14.10;3.90;;;;;;;;;;4994244;28;20186;-73
2021/09/25 17:41:45;;;;;;;5.83;4.07;;;;;;;;;;4993347;28;20225;-73
2021/09/25 17:44:51;;;;;;;10.57;4.03;;;;;;;;;;5004654;28;20205;-73
2021/09/25 17:47:57;;;;;;;5.57;3.80;;;;;;;;;;4993924;28;20202;-73
2021/09/25 17:51:02;;;;;;;5.47;3.87;;;;;;;;;;4993729;28;20218;-73
2021/09/25 17:54:08;;;;;;;5.83;3.87;;;;;;;;;;4994087;28;20202;-73
2021/09/25 17:57:13;;;;;;;8.67;4.07;;;;;;;;;;4993779;28;20554;-74
2021/09/25 18:00:17;;;;;;;6.43;3.70;;;;;;;;;;4992948;28;20202;-73
2021/09/25 18:03:21;;;;;;;5.97;3.80;;;;;;;;;;4993767;28;20182;-73
2021/09/25 18:06:26;;;;;;;7.53;4.70;;;;;;;;;;4993748;28;20170;-74
2021/09/25 18:09:30;;;;;;;9.40;4.73;;;;;;;;;;4993995;28;20182;-73
2021/09/25 18:12:34;;;;;;;6.83;4.83;;;;;;;;;;4993566;28;20233;-74
2021/09/25 18:15:38;;;;;;;7.37;5.00;;;;;;;;;;4997304;28;20183;-73
2021/09/25 18:18:42;;;;;;;10.67;4.97;;;;;;;;;;4997694;28;20178;-73
2021/09/25 18:21:49;;;;;;;5.47;4.40;;;;;;;;;;4997260;28;20221;-74
2021/09/25 18:24:54;;;;;;;11.70;4.70;;;;;;;;;;4997597;28;20174;-73